sensor_id;sensor_type;location;lat;lon;timestamp;temperature;humidity
2465;DHT22;1244;54.326;10.074;2023-06-19T00:02:15;18.70;99.90
2465;DHT22;1244;54.326;10.074;2023-06-19T00:04:40;18.80;99.90
2465;DHT22;1244;54.326;10.074;2023-06-19T00:07:06;18.70;99.90
2465;DHT22;1244;54.326;10.074;2023-06-19T00:09:32;18.60;99.90
2465;DHT22;1244;54.326;10.074;2023-06-19T00:11:58;18.20;99.90
2465;DHT22;1244;54.326;10.074;2023-06-19T00:14:25;18.30;99.90
2465;DHT22;1244;54.326;10.074;2023-06-19T00:16:51;18.00;99.90
2465;DHT22;1244;54.326;10.074;2023-06-19T00:19:17;18.10;99.90
2465;DHT22;1244;54.326;10.074;2023-06-19T00:21:43;18.10;99.90
2465;DHT22;1244;54.326;10.074;2023-06-19T00:24:10;18.20;99.90
2465;DHT22;1244;54.326;10.074;2023-06-19T00:26:36;18.00;99.90
2465;DHT22;1244;54.326;10.074;2023-06-19T00:29:01;18.10;99.90
2465;DHT22;1244;54.326;10.074;2023-06-19T00:31:27;17.80;99.90
2465;DHT22;1244;54.326;10.074;2023-06-19T00:33:53;17.90;99.90
2465;DHT22;1244;54.326;10.074;2023-06-19T00:36:19;17.80;99.90
2465;DHT22;1244;54.326;10.074;2023-06-19T00:38:51;17.80;99.90
2465;DHT22;1244;54.326;10.074;2023-06-19T00:41:17;17.90;99.90
2465;DHT22;1244;54.326;10.074;2023-06-19T00:43:42;17.80;99.90
2465;DHT22;1244;54.326;10.074;2023-06-19T00:46:08;17.70;99.90
2465;DHT22;1244;54.326;10.074;2023-06-19T00:48:36;17.60;99.90
2465;DHT22;1244;54.326;10.074;2023-06-19T00:51:02;17.60;99.90
2465;DHT22;1244;54.326;10.074;2023-06-19T00:53:28;17.50;99.90
2465;DHT22;1244;54.326;10.074;2023-06-19T00:55:55;17.60;99.90
2465;DHT22;1244;54.326;10.074;2023-06-19T00:58:22;17.70;99.90
2465;DHT22;1244;54.326;10.074;2023-06-19T01:00:48;17.70;99.90
2465;DHT22;1244;54.326;10.074;2023-06-19T01:03:14;17.80;99.90
2465;DHT22;1244;54.326;10.074;2023-06-19T01:05:40;18.00;99.90
2465;DHT22;1244;54.326;10.074;2023-06-19T01:08:10;18.10;99.90
2465;DHT22;1244;54.326;10.074;2023-06-19T01:10:42;17.90;99.90
2465;DHT22;1244;54.326;10.074;2023-06-19T01:13:14;18.20;99.90
2465;DHT22;1244;54.326;10.074;2023-06-19T01:15:42;17.90;99.90
2465;DHT22;1244;54.326;10.074;2023-06-19T01:18:08;17.90;99.90
2465;DHT22;1244;54.326;10.074;2023-06-19T01:20:37;18.20;99.90
2465;DHT22;1244;54.326;10.074;2023-06-19T01:23:09;18.30;99.90
2465;DHT22;1244;54.326;10.074;2023-06-19T01:25:37;18.30;99.90
2465;DHT22;1244;54.326;10.074;2023-06-19T01:28:05;18.30;99.90
2465;DHT22;1244;54.326;10.074;2023-06-19T01:30:33;18.20;99.90
2465;DHT22;1244;54.326;10.074;2023-06-19T01:33:23;18.00;99.90
2465;DHT22;1244;54.326;10.074;2023-06-19T01:35:51;18.10;99.90
2465;DHT22;1244;54.326;10.074;2023-06-19T01:38:19;18.00;99.90
2465;DHT22;1244;54.326;10.074;2023-06-19T01:40:47;17.80;99.90
2465;DHT22;1244;54.326;10.074;2023-06-19T01:43:15;17.90;99.90
2465;DHT22;1244;54.326;10.074;2023-06-19T01:45:41;17.70;99.90
2465;DHT22;1244;54.326;10.074;2023-06-19T01:48:07;17.60;99.90
2465;DHT22;1244;54.326;10.074;2023-06-19T01:50:33;17.60;99.90
2465;DHT22;1244;54.326;10.074;2023-06-19T01:52:59;17.50;99.90
2465;DHT22;1244;54.326;10.074;2023-06-19T01:55:25;17.40;99.90
2465;DHT22;1244;54.326;10.074;2023-06-19T01:57:50;17.30;99.90
2465;DHT22;1244;54.326;10.074;2023-06-19T02:00:16;17.20;99.90
2465;DHT22;1244;54.326;10.074;2023-06-19T02:02:42;17.20;99.90
2465;DHT22;1244;54.326;10.074;2023-06-19T02:05:08;17.30;99.90
2465;DHT22;1244;54.326;10.074;2023-06-19T02:07:34;17.30;99.90
2465;DHT22;1244;54.326;10.074;2023-06-19T02:10:00;17.60;99.90
2465;DHT22;1244;54.326;10.074;2023-06-19T02:12:25;17.40;99.90
2465;DHT22;1244;54.326;10.074;2023-06-19T02:14:51;17.60;99.90
2465;DHT22;1244;54.326;10.074;2023-06-19T02:17:16;17.50;99.90
2465;DHT22;1244;54.326;10.074;2023-06-19T02:19:42;17.60;99.90
2465;DHT22;1244;54.326;10.074;2023-06-19T02:22:08;17.50;99.90
2465;DHT22;1244;54.326;10.074;2023-06-19T02:24:34;17.50;99.90
2465;DHT22;1244;54.326;10.074;2023-06-19T02:26:59;17.70;99.90
2465;DHT22;1244;54.326;10.074;2023-06-19T02:29:25;17.70;99.90
2465;DHT22;1244;54.326;10.074;2023-06-19T02:31:51;18.00;99.90
2465;DHT22;1244;54.326;10.074;2023-06-19T02:34:17;17.80;99.90
2465;DHT22;1244;54.326;10.074;2023-06-19T02:36:42;17.80;99.90
2465;DHT22;1244;54.326;10.074;2023-06-19T02:39:09;17.80;99.90
2465;DHT22;1244;54.326;10.074;2023-06-19T02:41:34;18.10;99.90
2465;DHT22;1244;54.326;10.074;2023-06-19T02:44:00;17.90;99.90
2465;DHT22;1244;54.326;10.074;2023-06-19T02:46:27;18.00;99.90
2465;DHT22;1244;54.326;10.074;2023-06-19T02:48:52;18.30;99.90
2465;DHT22;1244;54.326;10.074;2023-06-19T02:51:18;18.40;99.90
2465;DHT22;1244;54.326;10.074;2023-06-19T02:53:43;18.50;99.90
2465;DHT22;1244;54.326;10.074;2023-06-19T02:56:10;18.30;99.90
2465;DHT22;1244;54.326;10.074;2023-06-19T02:58:36;18.40;99.90
2465;DHT22;1244;54.326;10.074;2023-06-19T03:01:03;18.50;99.90
2465;DHT22;1244;54.326;10.074;2023-06-19T03:03:28;18.50;99.90
2465;DHT22;1244;54.326;10.074;2023-06-19T03:05:55;18.40;99.90
2465;DHT22;1244;54.326;10.074;2023-06-19T03:08:21;18.30;99.90
2465;DHT22;1244;54.326;10.074;2023-06-19T03:10:46;18.50;99.90
2465;DHT22;1244;54.326;10.074;2023-06-19T03:13:13;18.60;99.90
2465;DHT22;1244;54.326;10.074;2023-06-19T03:15:39;18.60;99.90
2465;DHT22;1244;54.326;10.074;2023-06-19T03:18:04;18.70;99.90
2465;DHT22;1244;54.326;10.074;2023-06-19T03:20:32;18.70;99.90
2465;DHT22;1244;54.326;10.074;2023-06-19T03:22:58;18.70;99.90
2465;DHT22;1244;54.326;10.074;2023-06-19T03:25:23;18.90;99.90
2465;DHT22;1244;54.326;10.074;2023-06-19T03:27:49;18.80;99.90
2465;DHT22;1244;54.326;10.074;2023-06-19T03:30:14;18.80;99.90
2465;DHT22;1244;54.326;10.074;2023-06-19T03:32:44;18.80;99.90
2465;DHT22;1244;54.326;10.074;2023-06-19T03:35:09;18.90;99.90
2465;DHT22;1244;54.326;10.074;2023-06-19T03:37:35;18.80;99.90
2465;DHT22;1244;54.326;10.074;2023-06-19T03:40:01;18.80;99.90
2465;DHT22;1244;54.326;10.074;2023-06-19T03:42:28;18.80;99.90
2465;DHT22;1244;54.326;10.074;2023-06-19T03:44:54;18.80;99.90
2465;DHT22;1244;54.326;10.074;2023-06-19T03:47:19;18.80;99.90
2465;DHT22;1244;54.326;10.074;2023-06-19T03:49:45;18.90;99.90
2465;DHT22;1244;54.326;10.074;2023-06-19T03:52:10;18.90;99.90
2465;DHT22;1244;54.326;10.074;2023-06-19T03:54:36;18.90;99.90
2465;DHT22;1244;54.326;10.074;2023-06-19T03:57:01;18.90;99.90
2465;DHT22;1244;54.326;10.074;2023-06-19T03:59:27;18.90;99.90
2465;DHT22;1244;54.326;10.074;2023-06-19T04:01:52;18.90;99.90
2465;DHT22;1244;54.326;10.074;2023-06-19T04:04:18;18.90;99.90
2465;DHT22;1244;54.326;10.074;2023-06-19T04:06:43;19.00;99.90
2465;DHT22;1244;54.326;10.074;2023-06-19T04:09:09;19.00;99.90
2465;DHT22;1244;54.326;10.074;2023-06-19T04:11:34;18.90;99.90
2465;DHT22;1244;54.326;10.074;2023-06-19T04:14:00;19.00;99.90
2465;DHT22;1244;54.326;10.074;2023-06-19T04:16:25;18.90;99.90
2465;DHT22;1244;54.326;10.074;2023-06-19T04:18:51;19.00;99.90
2465;DHT22;1244;54.326;10.074;2023-06-19T04:21:16;18.90;99.90
2465;DHT22;1244;54.326;10.074;2023-06-19T04:23:42;18.90;99.90
2465;DHT22;1244;54.326;10.074;2023-06-19T04:26:07;18.90;99.90
2465;DHT22;1244;54.326;10.074;2023-06-19T04:28:33;19.10;99.90
2465;DHT22;1244;54.326;10.074;2023-06-19T04:30:58;19.00;99.90
2465;DHT22;1244;54.326;10.074;2023-06-19T04:33:28;19.00;99.90
2465;DHT22;1244;54.326;10.074;2023-06-19T04:35:54;18.90;99.90
2465;DHT22;1244;54.326;10.074;2023-06-19T04:38:19;19.00;99.90
2465;DHT22;1244;54.326;10.074;2023-06-19T04:40:51;19.00;99.90
2465;DHT22;1244;54.326;10.074;2023-06-19T04:43:17;19.00;99.90
2465;DHT22;1244;54.326;10.074;2023-06-19T04:45:44;19.10;99.90
2465;DHT22;1244;54.326;10.074;2023-06-19T04:48:10;19.00;99.90
2465;DHT22;1244;54.326;10.074;2023-06-19T04:50:36;19.10;99.90
2465;DHT22;1244;54.326;10.074;2023-06-19T04:53:02;19.10;99.90
2465;DHT22;1244;54.326;10.074;2023-06-19T04:55:27;19.20;99.90
2465;DHT22;1244;54.326;10.074;2023-06-19T04:57:53;19.10;99.90
2465;DHT22;1244;54.326;10.074;2023-06-19T05:00:19;19.10;99.90
2465;DHT22;1244;54.326;10.074;2023-06-19T05:02:45;19.10;99.90
2465;DHT22;1244;54.326;10.074;2023-06-19T05:05:13;19.20;99.90
2465;DHT22;1244;54.326;10.074;2023-06-19T05:07:39;19.10;99.90
2465;DHT22;1244;54.326;10.074;2023-06-19T05:10:05;19.10;99.90
2465;DHT22;1244;54.326;10.074;2023-06-19T05:12:34;19.20;99.90
2465;DHT22;1244;54.326;10.074;2023-06-19T05:15:00;19.20;99.90
2465;DHT22;1244;54.326;10.074;2023-06-19T05:17:25;19.20;99.90
2465;DHT22;1244;54.326;10.074;2023-06-19T05:19:51;19.30;99.90
2465;DHT22;1244;54.326;10.074;2023-06-19T05:22:16;19.20;99.90
2465;DHT22;1244;54.326;10.074;2023-06-19T05:24:44;19.20;99.90
2465;DHT22;1244;54.326;10.074;2023-06-19T05:27:09;19.30;99.90
2465;DHT22;1244;54.326;10.074;2023-06-19T05:29:34;19.20;99.90
2465;DHT22;1244;54.326;10.074;2023-06-19T05:32:00;19.20;99.90
2465;DHT22;1244;54.326;10.074;2023-06-19T05:34:26;19.20;99.90
2465;DHT22;1244;54.326;10.074;2023-06-19T05:36:53;19.20;99.90
2465;DHT22;1244;54.326;10.074;2023-06-19T05:39:18;19.20;99.90
2465;DHT22;1244;54.326;10.074;2023-06-19T05:41:44;19.20;99.90
2465;DHT22;1244;54.326;10.074;2023-06-19T05:44:11;19.20;99.90
2465;DHT22;1244;54.326;10.074;2023-06-19T05:46:40;19.30;99.90
2465;DHT22;1244;54.326;10.074;2023-06-19T05:49:05;19.30;99.90
2465;DHT22;1244;54.326;10.074;2023-06-19T05:51:31;19.30;99.90
2465;DHT22;1244;54.326;10.074;2023-06-19T05:53:56;19.30;99.90
2465;DHT22;1244;54.326;10.074;2023-06-19T05:56:28;19.30;99.90
2465;DHT22;1244;54.326;10.074;2023-06-19T05:58:53;19.40;99.90
2465;DHT22;1244;54.326;10.074;2023-06-19T06:01:19;19.30;99.90
2465;DHT22;1244;54.326;10.074;2023-06-19T06:03:45;19.40;99.90
2465;DHT22;1244;54.326;10.074;2023-06-19T06:06:10;19.40;99.90
2465;DHT22;1244;54.326;10.074;2023-06-19T06:08:36;19.40;99.90
2465;DHT22;1244;54.326;10.074;2023-06-19T06:11:01;19.50;99.90
2465;DHT22;1244;54.326;10.074;2023-06-19T06:13:27;19.50;99.90
2465;DHT22;1244;54.326;10.074;2023-06-19T06:15:53;19.50;99.90
2465;DHT22;1244;54.326;10.074;2023-06-19T06:18:19;19.50;99.90
2465;DHT22;1244;54.326;10.074;2023-06-19T06:20:44;19.50;99.90
2465;DHT22;1244;54.326;10.074;2023-06-19T06:23:10;19.40;99.90
2465;DHT22;1244;54.326;10.074;2023-06-19T06:25:35;19.50;99.90
2465;DHT22;1244;54.326;10.074;2023-06-19T06:28:01;19.50;99.90
2465;DHT22;1244;54.326;10.074;2023-06-19T06:30:26;19.50;99.90
2465;DHT22;1244;54.326;10.074;2023-06-19T06:32:53;19.50;99.90
2465;DHT22;1244;54.326;10.074;2023-06-19T06:35:19;19.60;99.90
2465;DHT22;1244;54.326;10.074;2023-06-19T06:37:44;19.50;99.90
2465;DHT22;1244;54.326;10.074;2023-06-19T06:40:11;19.60;99.90
2465;DHT22;1244;54.326;10.074;2023-06-19T06:42:38;19.50;99.90
2465;DHT22;1244;54.326;10.074;2023-06-19T06:45:07;19.70;99.90
2465;DHT22;1244;54.326;10.074;2023-06-19T06:47:36;19.60;99.90
2465;DHT22;1244;54.326;10.074;2023-06-19T06:50:02;19.60;99.90
2465;DHT22;1244;54.326;10.074;2023-06-19T06:52:27;19.60;99.90
2465;DHT22;1244;54.326;10.074;2023-06-19T06:54:53;19.70;99.90
2465;DHT22;1244;54.326;10.074;2023-06-19T06:57:19;19.60;99.90
2465;DHT22;1244;54.326;10.074;2023-06-19T06:59:44;19.60;99.90
2465;DHT22;1244;54.326;10.074;2023-06-19T07:02:10;19.80;99.90
2465;DHT22;1244;54.326;10.074;2023-06-19T07:04:35;19.80;99.90
2465;DHT22;1244;54.326;10.074;2023-06-19T07:07:01;19.80;99.90
2465;DHT22;1244;54.326;10.074;2023-06-19T07:09:29;19.80;99.90
2465;DHT22;1244;54.326;10.074;2023-06-19T07:11:54;19.80;99.90
2465;DHT22;1244;54.326;10.074;2023-06-19T07:14:20;20.00;99.90
2465;DHT22;1244;54.326;10.074;2023-06-19T07:16:46;19.80;99.90
2465;DHT22;1244;54.326;10.074;2023-06-19T07:19:11;20.00;99.90
2465;DHT22;1244;54.326;10.074;2023-06-19T07:21:38;20.00;99.90
2465;DHT22;1244;54.326;10.074;2023-06-19T07:24:04;20.00;99.90
2465;DHT22;1244;54.326;10.074;2023-06-19T07:26:30;20.00;99.90
2465;DHT22;1244;54.326;10.074;2023-06-19T07:28:56;20.00;99.90
2465;DHT22;1244;54.326;10.074;2023-06-19T07:31:21;20.00;99.90
2465;DHT22;1244;54.326;10.074;2023-06-19T07:33:47;20.10;99.90
2465;DHT22;1244;54.326;10.074;2023-06-19T07:36:12;20.00;99.90
2465;DHT22;1244;54.326;10.074;2023-06-19T07:38:40;20.00;99.90
2465;DHT22;1244;54.326;10.074;2023-06-19T07:41:05;20.00;99.90
2465;DHT22;1244;54.326;10.074;2023-06-19T07:43:32;19.90;99.90
2465;DHT22;1244;54.326;10.074;2023-06-19T07:45:58;19.90;99.90
2465;DHT22;1244;54.326;10.074;2023-06-19T07:48:24;19.70;99.90
2465;DHT22;1244;54.326;10.074;2023-06-19T07:50:50;19.60;99.90
2465;DHT22;1244;54.326;10.074;2023-06-19T07:53:15;19.50;99.90
2465;DHT22;1244;54.326;10.074;2023-06-19T07:55:41;19.50;99.90
2465;DHT22;1244;54.326;10.074;2023-06-19T07:58:07;19.30;99.90
2465;DHT22;1244;54.326;10.074;2023-06-19T08:00:32;19.20;99.90
2465;DHT22;1244;54.326;10.074;2023-06-19T08:02:58;19.30;99.90
2465;DHT22;1244;54.326;10.074;2023-06-19T08:05:23;19.40;99.90
2465;DHT22;1244;54.326;10.074;2023-06-19T08:07:49;19.30;99.90
2465;DHT22;1244;54.326;10.074;2023-06-19T08:10:14;19.30;99.90
2465;DHT22;1244;54.326;10.074;2023-06-19T08:12:44;19.30;99.90
2465;DHT22;1244;54.326;10.074;2023-06-19T08:15:11;19.20;99.90
2465;DHT22;1244;54.326;10.074;2023-06-19T08:17:36;19.00;99.90
2465;DHT22;1244;54.326;10.074;2023-06-19T08:20:02;19.00;99.90
2465;DHT22;1244;54.326;10.074;2023-06-19T08:22:30;18.90;99.90
2465;DHT22;1244;54.326;10.074;2023-06-19T08:24:56;18.80;99.90
2465;DHT22;1244;54.326;10.074;2023-06-19T08:27:21;18.70;99.90
2465;DHT22;1244;54.326;10.074;2023-06-19T08:29:47;18.70;99.90
2465;DHT22;1244;54.326;10.074;2023-06-19T08:32:12;18.70;99.90
2465;DHT22;1244;54.326;10.074;2023-06-19T08:34:38;18.60;99.90
2465;DHT22;1244;54.326;10.074;2023-06-19T08:37:05;18.60;99.90
2465;DHT22;1244;54.326;10.074;2023-06-19T08:39:30;18.80;99.90
2465;DHT22;1244;54.326;10.074;2023-06-19T08:41:56;18.60;99.90
2465;DHT22;1244;54.326;10.074;2023-06-19T08:44:21;18.70;99.90
2465;DHT22;1244;54.326;10.074;2023-06-19T08:46:47;18.80;99.90
2465;DHT22;1244;54.326;10.074;2023-06-19T08:49:13;18.90;99.90
2465;DHT22;1244;54.326;10.074;2023-06-19T08:51:39;18.90;99.90
2465;DHT22;1244;54.326;10.074;2023-06-19T08:54:06;19.00;99.90
2465;DHT22;1244;54.326;10.074;2023-06-19T08:56:32;19.10;99.90
2465;DHT22;1244;54.326;10.074;2023-06-19T08:59:15;19.20;99.90
2465;DHT22;1244;54.326;10.074;2023-06-19T09:01:49;19.20;99.90
2465;DHT22;1244;54.326;10.074;2023-06-19T09:04:18;19.50;99.90
2465;DHT22;1244;54.326;10.074;2023-06-19T09:06:58;19.60;99.90
2465;DHT22;1244;54.326;10.074;2023-06-19T09:09:25;19.90;99.90
2465;DHT22;1244;54.326;10.074;2023-06-19T09:12:05;20.20;99.90
2465;DHT22;1244;54.326;10.074;2023-06-19T09:17:05;20.50;99.90
2465;DHT22;1244;54.326;10.074;2023-06-19T09:19:32;20.60;99.90
2465;DHT22;1244;54.326;10.074;2023-06-19T09:22:06;20.70;99.90
2465;DHT22;1244;54.326;10.074;2023-06-19T09:24:38;20.80;99.90
2465;DHT22;1244;54.326;10.074;2023-06-19T09:27:10;21.00;99.90
2465;DHT22;1244;54.326;10.074;2023-06-19T09:29:40;20.90;99.90
2465;DHT22;1244;54.326;10.074;2023-06-19T09:32:16;21.30;99.90
2465;DHT22;1244;54.326;10.074;2023-06-19T09:34:42;21.70;99.90
2465;DHT22;1244;54.326;10.074;2023-06-19T09:37:08;21.80;99.90
2465;DHT22;1244;54.326;10.074;2023-06-19T09:39:35;22.10;99.90
2465;DHT22;1244;54.326;10.074;2023-06-19T09:42:02;22.50;99.90
2465;DHT22;1244;54.326;10.074;2023-06-19T09:44:31;23.00;99.90
2465;DHT22;1244;54.326;10.074;2023-06-19T09:46:58;23.20;99.90
2465;DHT22;1244;54.326;10.074;2023-06-19T09:49:28;22.60;99.90
2465;DHT22;1244;54.326;10.074;2023-06-19T09:51:57;22.80;99.90
2465;DHT22;1244;54.326;10.074;2023-06-19T09:54:23;23.20;99.90
2465;DHT22;1244;54.326;10.074;2023-06-19T09:56:49;23.50;99.90
2465;DHT22;1244;54.326;10.074;2023-06-19T09:59:18;23.70;99.90
2465;DHT22;1244;54.326;10.074;2023-06-19T10:01:44;23.90;99.90
2465;DHT22;1244;54.326;10.074;2023-06-19T10:04:10;24.20;99.90
2465;DHT22;1244;54.326;10.074;2023-06-19T10:06:47;24.30;99.90
2465;DHT22;1244;54.326;10.074;2023-06-19T10:09:15;24.20;99.90
2465;DHT22;1244;54.326;10.074;2023-06-19T10:11:48;24.30;99.90
2465;DHT22;1244;54.326;10.074;2023-06-19T10:14:19;23.80;99.90
2465;DHT22;1244;54.326;10.074;2023-06-19T10:16:45;23.80;99.90
2465;DHT22;1244;54.326;10.074;2023-06-19T10:19:15;23.80;99.90
2465;DHT22;1244;54.326;10.074;2023-06-19T10:21:50;23.70;99.90
2465;DHT22;1244;54.326;10.074;2023-06-19T10:24:17;24.00;99.90
2465;DHT22;1244;54.326;10.074;2023-06-19T10:26:56;23.90;99.90
2465;DHT22;1244;54.326;10.074;2023-06-19T10:29:22;24.10;99.90
2465;DHT22;1244;54.326;10.074;2023-06-19T10:31:48;23.90;99.90
2465;DHT22;1244;54.326;10.074;2023-06-19T10:34:13;24.00;99.90
2465;DHT22;1244;54.326;10.074;2023-06-19T10:36:39;24.20;99.90
2465;DHT22;1244;54.326;10.074;2023-06-19T10:39:05;24.10;99.90
2465;DHT22;1244;54.326;10.074;2023-06-19T10:41:31;24.50;99.90
2465;DHT22;1244;54.326;10.074;2023-06-19T10:43:59;24.60;99.90
2465;DHT22;1244;54.326;10.074;2023-06-19T10:46:29;24.40;99.90
2465;DHT22;1244;54.326;10.074;2023-06-19T10:48:55;24.60;99.90
2465;DHT22;1244;54.326;10.074;2023-06-19T10:51:29;25.60;99.90
2465;DHT22;1244;54.326;10.074;2023-06-19T10:53:56;25.80;99.90
2465;DHT22;1244;54.326;10.074;2023-06-19T10:56:22;25.60;99.90
2465;DHT22;1244;54.326;10.074;2023-06-19T10:58:48;25.70;99.90
2465;DHT22;1244;54.326;10.074;2023-06-19T11:01:14;25.80;99.90
2465;DHT22;1244;54.326;10.074;2023-06-19T11:03:39;25.30;99.90
2465;DHT22;1244;54.326;10.074;2023-06-19T11:06:05;25.00;99.90
2465;DHT22;1244;54.326;10.074;2023-06-19T11:08:30;25.10;99.90
2465;DHT22;1244;54.326;10.074;2023-06-19T11:10:56;25.40;99.90
2465;DHT22;1244;54.326;10.074;2023-06-19T11:13:22;25.60;99.90
2465;DHT22;1244;54.326;10.074;2023-06-19T11:15:48;25.60;99.90
2465;DHT22;1244;54.326;10.074;2023-06-19T11:18:18;25.30;99.90
2465;DHT22;1244;54.326;10.074;2023-06-19T11:21:01;25.10;99.90
2465;DHT22;1244;54.326;10.074;2023-06-19T11:23:29;25.20;99.90
2465;DHT22;1244;54.326;10.074;2023-06-19T11:26:05;25.10;99.90
2465;DHT22;1244;54.326;10.074;2023-06-19T11:28:30;25.70;99.90
2465;DHT22;1244;54.326;10.074;2023-06-19T11:31:01;26.40;99.90
2465;DHT22;1244;54.326;10.074;2023-06-19T11:33:28;27.30;99.90
2465;DHT22;1244;54.326;10.074;2023-06-19T11:35:54;27.90;99.90
2465;DHT22;1244;54.326;10.074;2023-06-19T11:38:25;28.60;99.90
2465;DHT22;1244;54.326;10.074;2023-06-19T11:40:52;28.90;99.90
2465;DHT22;1244;54.326;10.074;2023-06-19T11:43:29;28.90;99.90
2465;DHT22;1244;54.326;10.074;2023-06-19T11:46:08;29.10;99.90
2465;DHT22;1244;54.326;10.074;2023-06-19T11:48:36;29.40;99.90
2465;DHT22;1244;54.326;10.074;2023-06-19T11:51:02;29.40;99.90
2465;DHT22;1244;54.326;10.074;2023-06-19T11:53:28;29.60;99.90
2465;DHT22;1244;54.326;10.074;2023-06-19T11:55:54;29.70;99.90
2465;DHT22;1244;54.326;10.074;2023-06-19T11:58:20;29.90;99.90
2465;DHT22;1244;54.326;10.074;2023-06-19T12:00:46;30.60;99.90
2465;DHT22;1244;54.326;10.074;2023-06-19T12:03:12;30.00;99.90
2465;DHT22;1244;54.326;10.074;2023-06-19T12:05:37;29.20;99.90
2465;DHT22;1244;54.326;10.074;2023-06-19T12:08:03;29.10;99.90
2465;DHT22;1244;54.326;10.074;2023-06-19T12:10:30;29.30;99.90
2465;DHT22;1244;54.326;10.074;2023-06-19T12:12:56;29.60;99.90
2465;DHT22;1244;54.326;10.074;2023-06-19T12:15:21;29.30;99.90
2465;DHT22;1244;54.326;10.074;2023-06-19T12:17:47;28.60;99.90
2465;DHT22;1244;54.326;10.074;2023-06-19T12:20:13;27.90;99.90
2465;DHT22;1244;54.326;10.074;2023-06-19T12:22:41;27.70;99.90
2465;DHT22;1244;54.326;10.074;2023-06-19T12:25:08;27.40;99.90
2465;DHT22;1244;54.326;10.074;2023-06-19T12:27:33;27.10;99.90
2465;DHT22;1244;54.326;10.074;2023-06-19T12:30:00;27.10;99.90
2465;DHT22;1244;54.326;10.074;2023-06-19T12:32:26;27.20;99.90
2465;DHT22;1244;54.326;10.074;2023-06-19T12:34:51;27.50;99.90
2465;DHT22;1244;54.326;10.074;2023-06-19T12:37:20;28.50;99.90
2465;DHT22;1244;54.326;10.074;2023-06-19T12:39:46;29.60;99.90
2465;DHT22;1244;54.326;10.074;2023-06-19T12:42:12;29.70;99.90
2465;DHT22;1244;54.326;10.074;2023-06-19T12:44:38;29.40;99.90
2465;DHT22;1244;54.326;10.074;2023-06-19T12:47:04;29.10;99.90
2465;DHT22;1244;54.326;10.074;2023-06-19T12:49:31;28.70;99.90
2465;DHT22;1244;54.326;10.074;2023-06-19T12:51:57;28.50;99.90
2465;DHT22;1244;54.326;10.074;2023-06-19T12:54:22;28.30;99.90
2465;DHT22;1244;54.326;10.074;2023-06-19T12:56:48;27.80;99.90
2465;DHT22;1244;54.326;10.074;2023-06-19T12:59:14;27.50;99.90
2465;DHT22;1244;54.326;10.074;2023-06-19T13:01:41;27.20;99.90
2465;DHT22;1244;54.326;10.074;2023-06-19T13:04:06;27.00;99.90
2465;DHT22;1244;54.326;10.074;2023-06-19T13:06:32;26.90;99.90
2465;DHT22;1244;54.326;10.074;2023-06-19T13:08:57;26.80;99.90
2465;DHT22;1244;54.326;10.074;2023-06-19T13:11:23;26.80;99.90
2465;DHT22;1244;54.326;10.074;2023-06-19T13:13:48;26.70;99.90
2465;DHT22;1244;54.326;10.074;2023-06-19T13:16:14;26.70;99.90
2465;DHT22;1244;54.326;10.074;2023-06-19T13:18:41;27.00;99.90
2465;DHT22;1244;54.326;10.074;2023-06-19T13:21:07;27.60;99.90
2465;DHT22;1244;54.326;10.074;2023-06-19T13:23:32;28.10;99.90
2465;DHT22;1244;54.326;10.074;2023-06-19T13:25:58;28.10;99.90
2465;DHT22;1244;54.326;10.074;2023-06-19T13:28:23;27.60;99.90
2465;DHT22;1244;54.326;10.074;2023-06-19T13:30:49;27.00;99.90
2465;DHT22;1244;54.326;10.074;2023-06-19T13:33:15;26.80;99.90
2465;DHT22;1244;54.326;10.074;2023-06-19T13:35:41;26.40;99.90
2465;DHT22;1244;54.326;10.074;2023-06-19T13:38:07;26.20;99.90
2465;DHT22;1244;54.326;10.074;2023-06-19T13:40:32;26.10;99.90
2465;DHT22;1244;54.326;10.074;2023-06-19T13:42:58;26.10;99.90
2465;DHT22;1244;54.326;10.074;2023-06-19T13:45:24;26.00;99.90
2465;DHT22;1244;54.326;10.074;2023-06-19T13:47:50;26.20;99.90
2465;DHT22;1244;54.326;10.074;2023-06-19T13:50:16;26.30;99.90
2465;DHT22;1244;54.326;10.074;2023-06-19T13:52:45;26.10;99.90
2465;DHT22;1244;54.326;10.074;2023-06-19T13:55:11;26.10;99.90
2465;DHT22;1244;54.326;10.074;2023-06-19T13:57:36;26.60;99.90
2465;DHT22;1244;54.326;10.074;2023-06-19T14:00:03;27.00;99.90
2465;DHT22;1244;54.326;10.074;2023-06-19T14:02:28;27.20;99.90
2465;DHT22;1244;54.326;10.074;2023-06-19T14:04:54;27.00;99.90
2465;DHT22;1244;54.326;10.074;2023-06-19T14:07:20;27.10;99.90
2465;DHT22;1244;54.326;10.074;2023-06-19T14:09:49;27.40;99.90
2465;DHT22;1244;54.326;10.074;2023-06-19T14:12:18;27.30;99.90
2465;DHT22;1244;54.326;10.074;2023-06-19T14:14:44;27.30;99.90
2465;DHT22;1244;54.326;10.074;2023-06-19T14:17:09;27.40;99.90
2465;DHT22;1244;54.326;10.074;2023-06-19T14:19:35;27.10;99.90
2465;DHT22;1244;54.326;10.074;2023-06-19T14:22:00;26.90;99.90
2465;DHT22;1244;54.326;10.074;2023-06-19T14:24:27;26.50;99.90
2465;DHT22;1244;54.326;10.074;2023-06-19T14:26:52;26.60;99.90
2465;DHT22;1244;54.326;10.074;2023-06-19T14:29:18;26.40;99.90
2465;DHT22;1244;54.326;10.074;2023-06-19T14:31:45;26.40;99.90
2465;DHT22;1244;54.326;10.074;2023-06-19T14:34:11;26.60;99.90
2465;DHT22;1244;54.326;10.074;2023-06-19T14:36:38;26.60;99.90
2465;DHT22;1244;54.326;10.074;2023-06-19T14:39:04;26.50;99.90
2465;DHT22;1244;54.326;10.074;2023-06-19T14:41:29;26.20;99.90
2465;DHT22;1244;54.326;10.074;2023-06-19T14:43:55;26.00;99.90
2465;DHT22;1244;54.326;10.074;2023-06-19T14:46:20;26.00;99.90
2465;DHT22;1244;54.326;10.074;2023-06-19T14:48:46;25.90;99.90
2465;DHT22;1244;54.326;10.074;2023-06-19T14:51:12;26.20;99.90
2465;DHT22;1244;54.326;10.074;2023-06-19T14:53:38;26.40;99.90
2465;DHT22;1244;54.326;10.074;2023-06-19T14:56:03;26.10;99.90
2465;DHT22;1244;54.326;10.074;2023-06-19T14:58:29;25.70;99.90
2465;DHT22;1244;54.326;10.074;2023-06-19T15:00:55;25.50;99.90
2465;DHT22;1244;54.326;10.074;2023-06-19T15:03:21;25.50;99.90
2465;DHT22;1244;54.326;10.074;2023-06-19T15:05:46;25.10;99.90
2465;DHT22;1244;54.326;10.074;2023-06-19T15:08:12;24.90;99.90
2465;DHT22;1244;54.326;10.074;2023-06-19T15:10:37;24.70;99.90
2465;DHT22;1244;54.326;10.074;2023-06-19T15:13:03;24.60;99.90
2465;DHT22;1244;54.326;10.074;2023-06-19T15:15:30;24.70;99.90
2465;DHT22;1244;54.326;10.074;2023-06-19T15:17:55;24.70;99.90
2465;DHT22;1244;54.326;10.074;2023-06-19T15:20:22;24.80;99.90
2465;DHT22;1244;54.326;10.074;2023-06-19T15:22:48;24.90;99.90
2465;DHT22;1244;54.326;10.074;2023-06-19T15:25:13;24.90;99.90
2465;DHT22;1244;54.326;10.074;2023-06-19T15:27:39;24.80;99.90
2465;DHT22;1244;54.326;10.074;2023-06-19T15:30:05;24.50;99.90
2465;DHT22;1244;54.326;10.074;2023-06-19T15:32:31;24.50;99.90
2465;DHT22;1244;54.326;10.074;2023-06-19T15:34:56;24.30;99.90
2465;DHT22;1244;54.326;10.074;2023-06-19T15:37:22;24.30;99.90
2465;DHT22;1244;54.326;10.074;2023-06-19T15:39:47;24.00;99.90
2465;DHT22;1244;54.326;10.074;2023-06-19T15:42:13;24.10;99.90
2465;DHT22;1244;54.326;10.074;2023-06-19T15:44:38;24.50;99.90